Ana Sayfa
METAR-TAF:

METAR-TAF

Havaalanları :

Richard B. Russell Airport

Rome, Georgia, Amerika Birleşik Devletleri

Enlem: 34-20-52N, Boylam: 085-09-40W, yükseklik: 194 m

Güncel hava durumu gözlemi

Rapor saat 11:53 UTC de 54 dakika önce yapıldı.
Rüzgar kuzey/kuzeydoğudan 3 kt
Sıcaklık 25°C
Nem 79%
Basınç 1021 hPa
Görüş mesafesi: 16.1 km
4300 ft yükseklikte az bulutlu

METAR: KRMG 181153Z AUTO 03003KT 10SM FEW043 25/21 A3015 RMK AO2 SLP200 T02500211 10250 20228 53015

Saat: 08:47 (12:47 UTC)


TAF: eksik

4.000'den fazla havaalanı için hava durumu gözlemleri ve tahminleri (METAR ve TAF raporları).

Kullanılabilir istasyonlar harita üzerinde sarı ve kırmızı noktalarla gösterilir.

İstasyonun adını görmek için fareyi noktanın üzerinde gezdirin.

Sonrasında hava gözlem ve tahminlerini görmek için tıklayın.

Haritayı değiştirmek için: yaklaştırmak için siyah artı işaretli yeşil düğmeye ve uzaklaştırmak için de eksi işaretli düğmeye hızla tıklayın; bitişik haritalar için yeşil okları kullanın.


METAR-TAF: